createdAt,value
2018-11-22T00:02:41.812Z,25.47
2018-11-22T00:06:45.533Z,25.07
2018-11-22T00:10:31.538Z,23.87
2018-11-22T00:14:16.657Z,26.37
2018-11-22T00:18:02.018Z,25.50
2018-11-22T00:21:47.507Z,24.43
2018-11-22T00:25:32.652Z,27.60
2018-11-22T00:29:17.766Z,27.77
2018-11-22T00:33:02.946Z,26.83
2018-11-22T00:37:06.699Z,30.83
2018-11-22T00:40:51.847Z,27.17
2018-11-22T00:44:37.283Z,29.37
2018-11-22T00:48:22.705Z,32.43
2018-11-22T00:52:07.896Z,28.67
2018-11-22T00:56:11.886Z,32.37
2018-11-22T00:59:57.016Z,32.47
2018-11-22T01:03:42.135Z,35.63
2018-11-22T01:07:45.824Z,33.07
2018-11-22T01:15:27.253Z,34.07
2018-11-22T01:19:12.388Z,33.97
2018-11-22T01:22:59.104Z,36.53
2018-11-22T01:26:44.227Z,33.30
2018-11-22T01:30:29.345Z,34.40
2018-11-22T01:34:14.477Z,33.07
2018-11-22T01:37:59.989Z,35.90
2018-11-22T01:41:45.122Z,33.33
2018-11-22T01:45:30.257Z,36.23
2018-11-22T01:49:15.428Z,35.13
2018-11-22T01:53:00.551Z,37.57
2018-11-22T01:56:45.790Z,34.57
2018-11-22T02:00:31.183Z,35.40
2018-11-22T02:04:16.316Z,33.00
2018-11-22T02:08:20.042Z,35.17
2018-11-22T02:12:05.191Z,36.27
2018-11-22T02:15:50.326Z,32.97
2018-11-22T02:19:54.628Z,33.40
2018-11-22T02:23:39.756Z,34.83
2018-11-22T02:27:43.701Z,34.50
2018-11-22T02:31:28.828Z,34.53
2018-11-22T02:35:14.590Z,35.00
2018-11-22T02:38:59.738Z,35.97
2018-11-22T02:42:45.760Z,37.13
2018-11-22T02:46:30.888Z,35.07
2018-11-22T02:50:17.463Z,34.10
2018-11-22T02:54:02.553Z,35.20
2018-11-22T02:57:47.763Z,36.47
2018-11-22T03:01:51.442Z,34.50
2018-11-22T03:05:36.632Z,35.23
2018-11-22T03:09:22.027Z,34.77
2018-11-22T03:13:26.822Z,33.83
2018-11-22T03:16:52.986Z,34.97
2018-11-22T03:20:38.078Z,34.37
2018-11-22T03:24:23.211Z,36.30
2018-11-22T03:28:08.346Z,37.17
2018-11-22T03:31:53.466Z,34.83
2018-11-22T03:35:38.598Z,35.87
2018-11-22T03:39:23.733Z,35.87
2018-11-22T03:43:08.873Z,36.40
2018-11-22T03:46:53.989Z,35.73
2018-11-22T03:50:39.107Z,35.20
2018-11-22T03:54:42.763Z,35.83
2018-11-22T03:58:28.555Z,37.37
2018-11-22T04:02:13.662Z,34.37
2018-11-22T04:05:58.799Z,33.20
2018-11-22T04:10:02.464Z,33.33
2018-11-22T04:13:48.068Z,34.43
2018-11-22T04:17:33.488Z,33.10
2018-11-22T04:21:18.620Z,35.70
2018-11-22T04:25:03.768Z,34.33
2018-11-22T04:29:07.578Z,35.27
2018-11-22T04:32:53.316Z,35.83
2018-11-22T04:36:39.223Z,38.20
2018-11-22T04:40:25.502Z,36.83
2018-11-22T04:44:10.663Z,36.30
2018-11-22T04:47:57.414Z,34.53
2018-11-22T04:51:42.528Z,34.53
2018-11-22T04:55:27.680Z,32.53
2018-11-22T04:59:12.801Z,33.13
2018-11-22T05:02:57.910Z,33.53
2018-11-22T05:06:43.069Z,33.03
2018-11-22T05:10:29.396Z,31.17
2018-11-22T05:14:14.544Z,33.27
2018-11-22T05:18:00.019Z,31.50
2018-11-22T05:21:45.241Z,32.13
2018-11-22T05:25:30.384Z,31.77
2018-11-22T05:29:15.879Z,31.47
2018-11-22T05:33:01.352Z,32.03
2018-11-22T05:36:46.508Z,30.93
2018-11-22T05:40:31.962Z,32.57
2018-11-22T05:44:35.700Z,30.20
2018-11-22T05:48:20.829Z,31.10
2018-11-22T05:52:06.615Z,31.23
2018-11-22T05:55:51.363Z,31.20
2018-11-22T05:59:36.528Z,30.17
2018-11-22T06:03:22.057Z,30.93
2018-11-22T06:06:59.668Z,30.10
2018-11-22T06:10:45.347Z,30.73
2018-11-22T06:14:30.801Z,31.67
2018-11-22T06:18:34.476Z,30.77
2018-11-22T06:22:19.696Z,30.00
2018-11-22T06:26:04.862Z,29.77
2018-11-22T06:29:49.983Z,30.70
2018-11-22T06:33:35.442Z,30.40
2018-11-22T06:37:20.579Z,29.87
2018-11-22T06:41:05.717Z,31.80
2018-11-22T06:44:51.114Z,30.10
2018-11-22T06:48:36.216Z,32.23
2018-11-22T06:52:21.328Z,31.60
2018-11-22T06:56:06.796Z,31.33
2018-11-22T06:59:51.918Z,30.50
2018-11-22T07:03:37.043Z,30.83
2018-11-22T07:07:22.190Z,29.87
2018-11-22T07:11:07.392Z,31.77
2018-11-22T07:14:52.604Z,30.33
2018-11-22T07:18:56.316Z,33.83
2018-11-22T07:23:00.030Z,29.87
2018-11-22T07:26:45.450Z,30.97
2018-11-22T07:30:32.239Z,32.43
2018-11-22T07:34:17.402Z,30.27
2018-11-22T07:38:03.217Z,33.47
2018-11-22T07:41:48.630Z,29.93
2018-11-22T07:45:35.459Z,32.70
2018-11-22T07:49:20.621Z,31.13
2018-11-22T07:53:05.808Z,31.33
2018-11-22T07:56:51.002Z,30.30
2018-11-22T08:00:38.131Z,30.17
2018-11-22T08:04:41.843Z,30.20
2018-11-22T08:08:27.021Z,32.43
2018-11-22T08:12:12.321Z,29.33
2018-11-22T08:15:57.332Z,28.83
2018-11-22T08:19:42.539Z,28.80
2018-11-22T08:23:46.615Z,28.30
2018-11-22T08:27:31.792Z,29.03
2018-11-22T08:31:16.978Z,28.27
2018-11-22T08:35:02.189Z,32.43
2018-11-22T08:38:47.607Z,30.33
2018-11-22T08:42:32.788Z,28.23
2018-11-22T08:46:17.918Z,27.80
2018-11-22T08:50:03.499Z,31.00
2018-11-22T08:53:48.702Z,27.67
2018-11-22T08:57:33.943Z,31.60
2018-11-22T09:01:19.142Z,28.60
2018-11-22T09:05:04.331Z,27.30
2018-11-22T09:08:49.455Z,29.07
2018-11-22T09:12:34.599Z,30.33
2018-11-22T09:16:19.814Z,27.93
2018-11-22T09:20:05.014Z,28.53
2018-11-22T09:23:50.172Z,27.23
2018-11-22T09:27:35.442Z,29.43
2018-11-22T09:31:20.705Z,27.83
2018-11-22T09:35:06.224Z,27.90
2018-11-22T09:38:51.606Z,28.77
2018-11-22T09:42:36.831Z,28.30
2018-11-22T09:46:22.043Z,31.63
2018-11-22T09:50:07.515Z,27.47
2018-11-22T09:54:11.192Z,28.83
2018-11-22T09:58:14.846Z,27.73
2018-11-22T10:02:18.538Z,27.43
2018-11-22T10:06:03.736Z,28.17
2018-11-22T10:09:48.836Z,26.53
2018-11-22T10:13:33.997Z,28.43
2018-11-22T10:17:19.157Z,28.97
2018-11-22T10:21:04.595Z,27.87
2018-11-22T10:24:49.764Z,27.37
2018-11-22T10:28:34.879Z,25.43
2018-11-22T10:32:20.009Z,26.27
2018-11-22T10:36:05.146Z,26.30
2018-11-22T10:40:08.850Z,25.03
2018-11-22T10:43:53.952Z,25.33
2018-11-22T10:47:39.374Z,23.30
2018-11-22T10:51:24.510Z,24.97
2018-11-22T10:55:11.448Z,23.47
2018-11-22T10:58:56.553Z,25.00
2018-11-22T11:03:00.217Z,24.43
2018-11-22T11:07:03.901Z,27.03
2018-11-22T11:11:07.586Z,23.43
2018-11-22T11:14:52.796Z,24.43
2018-11-22T11:18:37.889Z,24.77
2018-11-22T11:22:22.998Z,24.27
2018-11-22T11:26:08.151Z,25.50
2018-11-22T11:30:11.836Z,25.27
2018-11-22T11:33:57.289Z,23.50
2018-11-22T11:37:42.510Z,23.53
2018-11-22T11:41:27.685Z,26.13
2018-11-22T11:45:12.902Z,24.33
2018-11-22T11:48:58.169Z,25.70
2018-11-22T11:52:43.433Z,26.67
2018-11-22T11:56:28.547Z,25.53
2018-11-22T12:00:51.500Z,26.40
2018-11-22T12:04:36.674Z,25.63
2018-11-22T12:08:22.099Z,24.07
2018-11-22T12:12:07.421Z,25.40
2018-11-22T12:15:52.704Z,25.47
2018-11-22T12:19:38.008Z,26.03
2018-11-22T12:23:24.374Z,24.10
2018-11-22T12:27:09.882Z,25.70
2018-11-22T12:30:55.307Z,28.20
2018-11-22T12:34:59.283Z,26.20
2018-11-22T12:38:45.256Z,25.57
2018-11-22T12:42:30.394Z,25.17
2018-11-22T12:46:15.578Z,25.73
2018-11-22T12:50:01.774Z,24.00
2018-11-22T12:54:05.382Z,26.37
2018-11-22T12:57:50.628Z,26.20
2018-11-22T13:01:54.314Z,24.97
2018-11-22T13:05:39.430Z,25.40
2018-11-22T13:09:24.553Z,25.90
2018-11-22T13:13:28.231Z,26.93
2018-11-22T13:17:31.935Z,26.57
2018-11-22T13:21:17.141Z,28.10
2018-11-22T13:25:02.283Z,28.13
2018-11-22T13:28:47.409Z,25.73
2018-11-22T13:32:32.534Z,26.83
2018-11-22T13:36:17.670Z,25.27
2018-11-22T13:40:02.777Z,25.73
2018-11-22T13:44:06.460Z,26.30
2018-11-22T13:47:52.913Z,25.90
2018-11-22T13:51:38.051Z,25.23
2018-11-22T13:55:23.162Z,26.83
2018-11-22T13:59:08.313Z,26.40
2018-11-22T14:02:54.983Z,28.50
2018-11-22T14:06:40.113Z,29.33
2018-11-22T14:10:25.244Z,26.30
2018-11-22T14:14:10.378Z,27.07
2018-11-22T14:17:57.245Z,26.90
2018-11-22T14:21:42.475Z,26.83
2018-11-22T14:25:27.682Z,28.17
2018-11-22T14:29:13.211Z,25.07
2018-11-22T14:32:58.364Z,25.70
2018-11-22T14:36:43.977Z,26.43
2018-11-22T14:40:30.903Z,25.40
2018-11-22T14:44:16.028Z,24.93
2018-11-22T14:48:19.703Z,25.10
2018-11-22T14:52:04.854Z,25.77
2018-11-22T14:55:49.986Z,26.20
2018-11-22T14:59:35.559Z,27.43
2018-11-22T15:03:20.979Z,28.13
2018-11-22T15:07:06.124Z,26.33
2018-11-22T15:10:51.283Z,26.30
2018-11-22T15:14:55.325Z,25.43
2018-11-22T15:18:40.461Z,23.70
2018-11-22T15:22:25.681Z,24.27
2018-11-22T15:26:29.350Z,27.00
2018-11-22T15:30:33.092Z,25.93
2018-11-22T15:34:18.194Z,26.37
2018-11-22T15:38:03.402Z,26.70
2018-11-22T15:41:48.521Z,26.90
2018-11-22T15:45:34.965Z,24.63
2018-11-22T15:49:19.068Z,26.70
2018-11-22T15:53:04.471Z,29.77
2018-11-22T15:56:30.643Z,30.90
2018-11-22T16:00:18.451Z,30.13
2018-11-22T16:04:03.634Z,27.97
2018-11-22T16:07:43.148Z,26.80
2018-11-22T16:11:28.280Z,28.00
2018-11-22T16:14:54.489Z,26.63
2018-11-22T16:18:39.615Z,30.27
2018-11-22T16:22:05.912Z,29.23
2018-11-22T16:25:51.161Z,34.50
2018-11-22T16:29:36.277Z,32.43
2018-11-22T16:33:21.424Z,33.87
2018-11-22T16:37:06.549Z,34.87
2018-11-22T16:40:51.814Z,34.57
2018-11-22T16:44:55.520Z,31.10
2018-11-22T16:48:40.647Z,31.47
2018-11-22T16:52:25.873Z,29.30
2018-11-22T16:56:10.993Z,28.97
2018-11-22T16:59:56.168Z,30.50
2018-11-22T17:03:41.232Z,32.90
2018-11-22T17:07:26.532Z,35.07
2018-11-22T17:11:11.671Z,33.23
2018-11-22T17:14:56.785Z,31.50
2018-11-22T17:19:00.483Z,31.87
2018-11-22T17:22:46.367Z,33.90
2018-11-22T17:26:50.053Z,36.60
2018-11-22T17:30:39.767Z,34.53
2018-11-22T17:34:24.901Z,31.40
2018-11-22T17:38:10.959Z,31.87
2018-11-22T17:41:56.149Z,34.40
2018-11-22T17:45:42.758Z,33.67
2018-11-22T17:49:27.892Z,33.17
2018-11-22T17:53:13.500Z,31.67
2018-11-22T17:56:58.618Z,36.33
2018-11-22T18:01:02.290Z,32.07
2018-11-22T18:04:47.471Z,32.57
2018-11-22T18:08:32.641Z,33.47
2018-11-22T18:12:17.772Z,33.23
2018-11-22T18:16:02.999Z,32.93
2018-11-22T18:19:48.103Z,31.50
2018-11-22T18:23:33.593Z,32.30
2018-11-22T18:27:18.731Z,31.70
2018-11-22T18:31:03.908Z,32.37
2018-11-22T18:34:49.439Z,32.47
2018-11-22T18:38:34.660Z,32.10
2018-11-22T18:42:19.802Z,32.70
2018-11-22T18:46:05.779Z,32.97
2018-11-22T18:49:51.261Z,34.87
2018-11-22T18:53:54.928Z,42.47
2018-11-22T18:57:58.635Z,41.33
2018-11-22T19:01:45.071Z,36.33
2018-11-22T19:05:47.483Z,37.03
2018-11-22T19:09:51.572Z,48.53
2018-11-22T19:13:36.698Z,47.87
2018-11-22T19:17:22.182Z,42.77
2018-11-22T19:21:07.341Z,37.90
2018-11-22T19:24:52.736Z,38.50
2018-11-22T19:28:38.126Z,37.90
2018-11-22T19:32:23.401Z,32.73
2018-11-22T19:36:08.816Z,34.00
2018-11-22T19:39:53.990Z,30.53
2018-11-22T19:43:39.135Z,29.60
2018-11-22T19:47:24.325Z,29.77
2018-11-22T19:51:09.468Z,28.90
2018-11-22T19:55:13.154Z,29.97
2018-11-22T19:58:58.284Z,33.70
2018-11-22T20:03:01.999Z,31.17
2018-11-22T20:07:05.666Z,31.93
2018-11-22T20:10:51.308Z,32.73
2018-11-22T20:14:36.422Z,36.50
2018-11-22T20:18:40.089Z,33.10
2018-11-22T20:22:25.500Z,27.60
2018-11-22T20:26:11.033Z,30.27
2018-11-22T20:30:14.701Z,32.30
2018-11-22T20:33:59.875Z,31.47
2018-11-22T20:37:45.775Z,32.63
2018-11-22T20:41:49.433Z,32.90
2018-11-22T20:45:40.683Z,29.93
2018-11-22T20:49:20.395Z,33.60
2018-11-22T20:53:05.589Z,31.03
2018-11-22T20:56:50.776Z,29.27
2018-11-22T21:00:37.631Z,29.30
2018-11-22T21:04:03.821Z,30.10
2018-11-22T21:07:48.978Z,35.80
2018-11-22T21:11:34.095Z,27.27
2018-11-22T21:15:38.713Z,27.87
2018-11-22T21:19:23.891Z,31.70
2018-11-22T21:23:09.037Z,34.87
2018-11-22T21:26:54.623Z,31.70
2018-11-22T21:30:40.691Z,27.90
2018-11-22T21:34:26.264Z,28.47
2018-11-22T21:38:11.388Z,29.40
2018-11-22T21:42:15.079Z,27.80
2018-11-22T21:46:00.201Z,25.87
2018-11-22T21:50:06.708Z,28.93
2018-11-22T21:54:10.401Z,27.87
2018-11-22T21:57:56.675Z,26.17
2018-11-22T22:01:41.823Z,28.13
2018-11-22T22:05:26.943Z,27.10
2018-11-22T22:09:12.028Z,27.53
2018-11-22T22:12:57.184Z,26.63
2018-11-22T22:16:42.305Z,28.67
2018-11-22T22:20:46.005Z,29.83
2018-11-22T22:24:31.172Z,29.27
2018-11-22T22:28:16.619Z,29.13
2018-11-22T22:32:01.771Z,25.80
2018-11-22T22:35:46.956Z,30.47
2018-11-22T22:39:32.077Z,29.77
2018-11-22T22:43:17.170Z,26.07
2018-11-22T22:47:02.284Z,29.37
2018-11-22T22:50:47.693Z,29.57
2018-11-22T22:54:32.870Z,28.90
2018-11-22T22:58:18.024Z,31.03
2018-11-22T23:02:22.132Z,31.00
2018-11-22T23:06:07.243Z,30.13
2018-11-22T23:09:52.352Z,28.60
2018-11-22T23:13:37.474Z,28.00
2018-11-22T23:17:41.150Z,27.37
2018-11-22T23:21:26.253Z,27.90
2018-11-22T23:25:12.434Z,26.33
2018-11-22T23:28:57.547Z,27.07
2018-11-22T23:32:43.017Z,27.17
2018-11-22T23:36:28.131Z,25.97
2018-11-22T23:40:14.782Z,25.60
2018-11-22T23:44:00.176Z,27.90
2018-11-22T23:47:45.775Z,27.10
2018-11-22T23:51:30.875Z,24.07
2018-11-22T23:55:34.555Z,24.30
2018-11-22T23:59:19.759Z,24.93
